Leoville, Canada
Current Conditions -  °F | °C
As of 10:00 AM on Thursday 18 Dec 2014 (Local Time) from CYLJ Reporting Station
Haze Haze  
Wind Chill: -9°   Ceiling: 1000
Heat Index: -9°   Visibility: 6mi
Dew Point: -10°   Wind: 3mph
Humidity: 93%   Direction: 160°SSE
Pressure: 29.88"   Gusts: NA
Location:  53.63°N, 107.55°W
Report Text: CYLJ 181600Z 16003KT 6SM BR OVC010 M09/M10 A2988 RMK ST8 SLP155
Loading
Personal Weather Stations






























Interactive Weather Map New forecast layout! Learn more

10-Day Weather Forecast

Advertisements
Track Severe Weather on mobile